Date,TemperatureHighF,TemperatureAvgF,TemperatureLowF,DewpointHighF,DewpointAvgF,DewpointLowF,HumidityHigh,HumidityAvg,HumidityLow,PressureMaxIn,PressureMinIn,WindSpeedMaxMPH,WindSpeedAvgMPH,GustSpeedMaxMPH,PrecipitationSumIn
2013-1-1,32,24,11,-100,-100,-100,0,0,100,0.00,40.00,0,-999,0,0.00
2013-1-2,25,11,2,-100,-100,-100,0,0,100,0.00,40.00,0,-999,0,0.00
2013-1-3,17,8,-2,-100,-100,-100,0,0,100,0.00,40.00,0,-999,0,0.00
2013-1-4,36,21,2,-100,-100,-100,0,0,100,0.00,40.00,0,-999,0,0.00
2013-1-5,35,29,16,-100,-100,-100,0,0,100,0.00,40.00,0,-999,0,0.00
2013-1-6,35,26,15,-100,-100,-100,0,0,100,0.00,40.00,0,-999,0,0.00
2013-1-7,31,26,10,-100,-100,-100,0,0,100,0.00,40.00,0,-999,0,0.00
2013-1-8,42,21,6,-100,-100,-100,0,0,100,0.00,40.00,0,-999,0,0.00
2013-1-9,41,25,15,-100,-100,-100,0,0,100,0.00,40.00,0,-999,0,0.00
2013-1-10,41,38,29,-100,-100,-100,0,0,100,0.00,40.00,0,-999,0,0.00
2013-1-11,37,29,20,-100,-100,-100,0,0,100,0.00,40.00,0,-999,0,0.00
2013-1-12,39,35,33,-100,-100,-100,0,0,100,0.00,40.00,0,-999,0,0.00
2013-1-13,40,37,34,-100,-100,-100,0,0,100,0.00,40.00,0,-999,0,0.00
2013-1-14,55,42,35,-100,-100,-100,0,0,100,0.00,40.00,0,-999,0,0.00
2013-1-15,39,32,26,-100,-100,-100,0,0,100,0.00,40.00,0,-999,0,0.00
2013-1-16,30,29,29,-100,-100,-100,0,0,100,0.00,40.00,0,-999,0,0.00
2013-1-17,40,27,19,-100,-100,-100,0,0,100,0.00,40.00,0,-999,0,0.00
2013-1-18,20,14,7,-100,-100,-100,0,0,100,0.00,40.00,0,-999,0,0.00
2013-1-19,40,26,13,-100,-100,-100,0,0,100,0.00,40.00,0,-999,0,0.00
2013-1-20,47,33,23,-100,-100,-100,0,0,100,0.00,40.00,0,-999,0,0.00
2013-1-21,27,21,13,-100,-100,-100,0,0,100,0.00,40.00,0,-999,0,0.00
2013-1-22,23,17,4,-100,-100,-100,0,0,100,0.00,40.00,0,-999,0,0.00
2013-1-23,7,2,-3,-100,-100,-100,0,0,100,0.00,40.00,0,-999,0,0.00
2013-1-24,13,4,-6,-100,-100,-100,0,0,100,0.00,40.00,0,-999,0,0.00
2013-1-25,18,10,1,-100,-100,-100,0,0,100,0.00,40.00,0,-999,0,0.00
2013-1-26,19,14,9,-100,-100,-100,0,0,100,0.00,40.00,0,-999,0,0.00
2013-1-27,25,16,9,-100,-100,-100,0,0,100,0.00,40.00,0,-999,0,0.00
2013-1-28,24,16,7,-100,-100,-100,0,0,100,0.00,40.00,0,-999,0,0.00
2013-1-29,34,26,13,-100,-100,-100,0,0,100,0.00,40.00,0,-999,0,0.00
2013-1-30,36,34,32,-100,-100,-100,0,0,100,0.00,40.00,0,-999,0,0.00
2013-1-31,53,38,29,-100,-100,-100,0,0,100,0.00,40.00,0,-999,0,0.00